createdAt,value
2018-09-16T00:00:34.439Z,5.20
2018-09-16T00:03:02.716Z,4.80
2018-09-16T00:05:30.989Z,5.17
2018-09-16T00:07:59.308Z,4.50
2018-09-16T00:10:28.347Z,4.67
2018-09-16T00:12:56.641Z,5.17
2018-09-16T00:15:24.945Z,4.30
2018-09-16T00:17:53.243Z,4.75
2018-09-16T00:20:21.502Z,4.47
2018-09-16T00:22:49.804Z,4.50
2018-09-16T00:25:18.051Z,4.58
2018-09-16T00:27:46.308Z,4.50
2018-09-16T00:30:15.312Z,5.00
2018-09-16T00:32:43.759Z,5.20
2018-09-16T00:35:12.645Z,4.60
2018-09-16T00:37:40.922Z,5.40
2018-09-16T00:40:09.200Z,5.20
2018-09-16T00:42:37.460Z,4.97
2018-09-16T00:45:06.041Z,5.87
2018-09-16T00:47:34.321Z,5.67
2018-09-16T00:50:03.255Z,5.28
2018-09-16T00:52:31.565Z,5.03
2018-09-16T00:54:59.869Z,5.33
2018-09-16T00:57:28.137Z,4.92
2018-09-16T00:59:56.410Z,5.10
2018-09-16T01:02:24.636Z,5.28
2018-09-16T01:04:52.892Z,4.87
2018-09-16T01:07:21.116Z,5.42
2018-09-16T01:09:49.381Z,5.10
2018-09-16T01:12:17.593Z,5.58
2018-09-16T01:14:45.832Z,5.53
2018-09-16T01:17:14.044Z,5.17
2018-09-16T01:19:43.840Z,4.93
2018-09-16T01:22:12.081Z,5.15
2018-09-16T01:24:40.301Z,5.10
2018-09-16T01:27:08.537Z,4.90
2018-09-16T01:29:36.762Z,5.22
2018-09-16T01:32:05.083Z,4.80
2018-09-16T01:34:33.301Z,5.03
2018-09-16T01:37:05.721Z,5.08
2018-09-16T01:39:34.112Z,5.10
2018-09-16T01:42:02.377Z,5.20
2018-09-16T01:44:30.609Z,6.07
2018-09-16T01:46:58.861Z,5.60
2018-09-16T01:49:27.084Z,5.40
2018-09-16T01:51:55.325Z,5.50
2018-09-16T01:54:23.548Z,5.60
2018-09-16T01:56:51.782Z,5.33
2018-09-16T01:59:20.040Z,6.17
2018-09-16T02:01:48.297Z,5.70
2018-09-16T02:04:16.533Z,5.30
2018-09-16T02:06:44.770Z,5.62
2018-09-16T02:09:12.985Z,5.30
2018-09-16T02:11:41.246Z,5.45
2018-09-16T02:14:09.480Z,5.40
2018-09-16T02:16:37.752Z,5.30
2018-09-16T02:19:06.040Z,5.67
2018-09-16T02:21:34.269Z,4.85
2018-09-16T02:24:02.512Z,5.10
2018-09-16T02:26:30.784Z,5.40
2018-09-16T02:28:59.088Z,5.30
2018-09-16T02:31:27.321Z,5.50
2018-09-16T02:33:55.581Z,5.35
2018-09-16T02:36:23.793Z,5.37
2018-09-16T02:38:52.065Z,5.30
2018-09-16T02:41:20.285Z,5.15
2018-09-16T02:43:48.569Z,5.33
2018-09-16T02:46:16.788Z,5.53
2018-09-16T02:48:45.018Z,5.87
2018-09-16T02:51:13.261Z,5.97
2018-09-16T02:53:41.496Z,6.85
2018-09-16T02:56:09.718Z,6.33
2018-09-16T02:58:37.949Z,6.00
2018-09-16T03:01:06.192Z,6.10
2018-09-16T03:03:34.545Z,6.03
2018-09-16T03:06:02.754Z,6.37
2018-09-16T03:08:30.998Z,5.15
2018-09-16T03:10:59.230Z,5.45
2018-09-16T03:13:27.464Z,5.53
2018-09-16T03:15:55.686Z,5.50
2018-09-16T03:18:23.929Z,5.50
2018-09-16T03:20:52.136Z,5.35
2018-09-16T03:23:20.354Z,5.70
2018-09-16T03:25:48.568Z,5.67
2018-09-16T03:28:16.805Z,5.60
2018-09-16T03:30:45.049Z,5.20
2018-09-16T03:33:13.253Z,4.33
2018-09-16T03:35:41.480Z,4.55
2018-09-16T03:38:09.685Z,4.20
2018-09-16T03:40:37.943Z,4.47
2018-09-16T03:43:06.320Z,4.70
2018-09-16T03:45:34.557Z,4.83
2018-09-16T03:48:02.801Z,4.42
2018-09-16T03:50:31.041Z,4.62
2018-09-16T03:52:59.249Z,4.53
2018-09-16T03:55:27.475Z,4.05
2018-09-16T03:57:55.680Z,4.53
2018-09-16T04:00:23.950Z,4.90
2018-09-16T04:02:52.188Z,4.60
2018-09-16T04:05:20.784Z,4.08
2018-09-16T04:07:49.956Z,4.28
2018-09-16T04:10:18.233Z,4.75
2018-09-16T04:12:46.603Z,4.20
2018-09-16T04:15:14.880Z,4.58
2018-09-16T04:17:43.115Z,4.30
2018-09-16T04:20:11.344Z,4.40
2018-09-16T04:22:39.601Z,4.53
2018-09-16T04:25:08.143Z,4.30
2018-09-16T04:27:36.369Z,4.90
2018-09-16T04:30:04.953Z,5.00
2018-09-16T04:32:33.217Z,4.47
2018-09-16T04:35:01.449Z,5.22
2018-09-16T04:37:29.690Z,5.17
2018-09-16T04:39:57.925Z,5.12
2018-09-16T04:42:26.185Z,4.80
2018-09-16T04:44:55.467Z,4.70
2018-09-16T04:47:23.697Z,5.05
2018-09-16T04:49:51.917Z,5.95
2018-09-16T04:52:20.190Z,5.62
2018-09-16T04:54:48.417Z,5.12
2018-09-16T04:57:16.660Z,5.70
2018-09-16T04:59:44.993Z,5.30
2018-09-16T05:02:13.230Z,5.10
2018-09-16T05:04:41.506Z,5.17
2018-09-16T05:07:09.816Z,5.08
2018-09-16T05:09:38.101Z,5.37
2018-09-16T05:12:06.715Z,4.40
2018-09-16T05:14:35.018Z,4.87
2018-09-16T05:17:03.322Z,4.65
2018-09-16T05:19:31.595Z,5.70
2018-09-16T05:21:59.912Z,6.40
2018-09-16T05:24:28.204Z,5.20
2018-09-16T05:26:56.568Z,5.35
2018-09-16T05:29:24.838Z,6.80
2018-09-16T05:31:53.136Z,6.30
2018-09-16T05:34:21.427Z,6.42
2018-09-16T05:36:49.829Z,6.15
2018-09-16T05:39:18.139Z,6.20
2018-09-16T05:41:46.494Z,6.15
2018-09-16T05:44:14.829Z,6.50
2018-09-16T05:46:43.122Z,6.20
2018-09-16T05:49:11.427Z,6.30
2018-09-16T05:51:39.735Z,5.97
2018-09-16T05:54:08.030Z,6.47
2018-09-16T05:56:36.338Z,5.97
2018-09-16T05:59:04.680Z,6.30
2018-09-16T06:01:32.984Z,6.62
2018-09-16T06:04:01.284Z,6.97
2018-09-16T06:06:29.589Z,7.03
2018-09-16T06:08:57.894Z,7.47
2018-09-16T06:11:26.189Z,6.63
2018-09-16T06:13:54.789Z,7.20
2018-09-16T06:16:23.086Z,7.03
2018-09-16T06:18:51.397Z,7.50
2018-09-16T06:21:19.683Z,7.25
2018-09-16T06:23:47.999Z,6.90
2018-09-16T06:26:16.357Z,7.60
2018-09-16T06:28:44.659Z,7.43
2018-09-16T06:31:12.941Z,7.45
2018-09-16T06:33:41.277Z,8.55
2018-09-16T06:36:09.524Z,8.77
2018-09-16T06:38:37.805Z,8.90
2018-09-16T06:41:06.281Z,9.20
2018-09-16T06:43:34.553Z,10.30
2018-09-16T06:46:02.941Z,9.95
2018-09-16T06:48:31.229Z,10.95
2018-09-16T06:50:59.592Z,11.60
2018-09-16T06:53:27.881Z,11.18
2018-09-16T06:55:56.201Z,9.98
2018-09-16T06:58:24.474Z,10.00
2018-09-16T07:00:52.853Z,10.85
2018-09-16T07:03:21.125Z,11.50
2018-09-16T07:05:49.592Z,11.57
2018-09-16T07:08:17.943Z,10.70
2018-09-16T07:10:46.260Z,10.53
2018-09-16T07:13:14.545Z,10.25
2018-09-16T07:15:42.840Z,9.88
2018-09-16T07:18:11.133Z,10.98
2018-09-16T07:20:39.461Z,10.13
2018-09-16T07:23:07.742Z,10.43
2018-09-16T07:25:36.038Z,11.08
2018-09-16T07:28:04.329Z,11.70
2018-09-16T07:30:32.659Z,11.80
2018-09-16T07:33:00.937Z,11.68
2018-09-16T07:35:29.237Z,12.65
2018-09-16T07:37:57.545Z,14.13
2018-09-16T07:40:25.813Z,12.40
2018-09-16T07:42:54.142Z,12.75
2018-09-16T07:45:22.421Z,13.18
2018-09-16T07:47:50.742Z,12.37
2018-09-16T07:50:19.115Z,12.78
2018-09-16T07:52:47.550Z,12.47
2018-09-16T07:55:15.774Z,11.40
2018-09-16T07:57:44.079Z,11.85
2018-09-16T08:00:12.399Z,12.23
2018-09-16T08:02:40.714Z,12.40
2018-09-16T08:05:09.074Z,12.65
2018-09-16T08:07:37.368Z,11.80
2018-09-16T08:10:05.689Z,12.13
2018-09-16T08:12:34.000Z,12.53
2018-09-16T08:15:02.269Z,12.30
2018-09-16T08:17:30.573Z,11.60
2018-09-16T08:19:58.849Z,13.37
2018-09-16T08:22:27.175Z,12.37
2018-09-16T08:24:55.704Z,13.03
2018-09-16T08:27:23.995Z,12.10
2018-09-16T08:29:52.286Z,12.25
2018-09-16T08:32:20.593Z,11.63
2018-09-16T08:34:48.857Z,11.90
2018-09-16T08:37:17.151Z,15.30
2018-09-16T08:39:45.488Z,11.10
2018-09-16T08:42:13.782Z,10.32
2018-09-16T08:44:42.077Z,10.50
2018-09-16T08:47:10.368Z,9.50
2018-09-16T08:49:38.663Z,9.53
2018-09-16T08:52:07.021Z,9.03
2018-09-16T08:54:35.325Z,8.80
2018-09-16T08:57:03.642Z,8.97
2018-09-16T08:59:32.000Z,8.55
2018-09-16T09:02:00.322Z,9.23
2018-09-16T09:04:28.656Z,7.60
2018-09-16T09:06:56.914Z,8.23
2018-09-16T09:09:25.223Z,7.20
2018-09-16T09:11:53.538Z,7.17
2018-09-16T09:14:21.909Z,6.50
2018-09-16T09:16:50.158Z,6.10
2018-09-16T09:19:18.474Z,5.27
2018-09-16T09:21:46.709Z,6.20
2018-09-16T09:24:14.957Z,5.30
2018-09-16T09:26:43.190Z,5.70
2018-09-16T09:29:11.457Z,5.03
2018-09-16T09:31:39.705Z,5.50
2018-09-16T09:34:07.960Z,5.10
2018-09-16T09:36:36.205Z,4.42
2018-09-16T09:39:06.525Z,4.40
2018-09-16T09:41:34.764Z,4.10
2018-09-16T09:44:03.053Z,3.90
2018-09-16T09:46:31.300Z,3.40
2018-09-16T09:48:59.528Z,2.80
2018-09-16T09:51:27.792Z,2.70
2018-09-16T09:53:56.049Z,3.13
2018-09-16T09:56:24.297Z,2.80
2018-09-16T09:58:52.599Z,2.75
2018-09-16T10:01:21.804Z,3.34
2018-09-16T10:03:50.056Z,3.08
2018-09-16T10:06:18.329Z,2.57
2018-09-16T10:08:46.571Z,2.50
2018-09-16T10:11:14.844Z,3.10
2018-09-16T10:13:43.069Z,3.10
2018-09-16T10:16:11.343Z,2.97
2018-09-16T10:18:39.613Z,3.60
2018-09-16T10:21:07.896Z,3.10
2018-09-16T10:23:36.133Z,3.10
2018-09-16T10:26:04.393Z,3.00
2018-09-16T10:28:32.625Z,2.75
2018-09-16T10:31:00.897Z,2.92
2018-09-16T10:33:29.141Z,3.00
2018-09-16T10:35:57.408Z,3.27
2018-09-16T10:38:25.656Z,3.80
2018-09-16T10:40:53.896Z,3.50
2018-09-16T10:43:22.131Z,3.30
2018-09-16T10:45:50.397Z,3.30
2018-09-16T10:48:18.665Z,2.70
2018-09-16T10:50:46.896Z,2.80
2018-09-16T10:53:16.260Z,2.90
2018-09-16T10:55:44.507Z,3.37
2018-09-16T10:58:13.033Z,2.70
2018-09-16T11:00:41.293Z,2.10
2018-09-16T11:03:09.540Z,2.30
2018-09-16T11:05:37.792Z,2.50
2018-09-16T11:08:06.152Z,2.30
2018-09-16T11:10:34.348Z,2.12
2018-09-16T11:13:02.798Z,2.77
2018-09-16T11:15:31.041Z,2.40
2018-09-16T11:17:59.297Z,2.20
2018-09-16T11:20:27.537Z,2.40
2018-09-16T11:22:55.792Z,2.70
2018-09-16T11:25:24.025Z,2.60
2018-09-16T11:27:52.313Z,2.37
2018-09-16T11:30:20.536Z,2.37
2018-09-16T11:32:48.799Z,2.50
2018-09-16T11:35:17.025Z,2.63
2018-09-16T11:37:45.720Z,2.80
2018-09-16T11:40:13.981Z,2.50
2018-09-16T11:42:42.248Z,2.40
2018-09-16T11:45:10.490Z,2.40
2018-09-16T11:47:38.792Z,2.80
2018-09-16T11:50:07.033Z,3.08
2018-09-16T11:52:35.265Z,3.00
2018-09-16T11:55:03.549Z,2.50
2018-09-16T11:57:31.784Z,2.58
2018-09-16T12:00:00.080Z,2.90
2018-09-16T12:02:28.349Z,2.98
2018-09-16T12:04:56.609Z,2.70
2018-09-16T12:07:24.853Z,2.60
2018-09-16T12:09:53.153Z,2.70
2018-09-16T12:12:21.385Z,2.90
2018-09-16T12:14:49.636Z,3.10
2018-09-16T12:17:17.864Z,3.05
2018-09-16T12:19:46.149Z,2.50
2018-09-16T12:22:14.419Z,2.70
2018-09-16T12:24:42.680Z,2.50
2018-09-16T12:27:10.926Z,2.30
2018-09-16T12:29:39.184Z,2.37
2018-09-16T12:32:07.413Z,2.70
2018-09-16T12:34:35.940Z,2.20
2018-09-16T12:37:04.192Z,2.20
2018-09-16T12:39:32.440Z,2.40
2018-09-16T12:42:00.694Z,2.40
2018-09-16T12:44:28.955Z,2.30
2018-09-16T12:46:57.188Z,2.50
2018-09-16T12:49:25.458Z,1.70
2018-09-16T12:51:53.697Z,2.00
2018-09-16T12:54:21.949Z,1.70
2018-09-16T12:56:50.308Z,1.90
2018-09-16T12:59:22.353Z,2.00
2018-09-16T13:01:50.642Z,2.00
2018-09-16T13:04:18.932Z,1.80
2018-09-16T13:06:47.165Z,1.90
2018-09-16T13:09:15.397Z,2.17
2018-09-16T13:11:43.637Z,1.90
2018-09-16T13:14:11.862Z,1.90
2018-09-16T13:16:40.117Z,1.80
2018-09-16T13:19:08.362Z,1.98
2018-09-16T13:21:36.629Z,2.30
2018-09-16T13:24:04.860Z,1.62
2018-09-16T13:26:33.125Z,1.80
2018-09-16T13:29:01.363Z,1.90
2018-09-16T13:31:29.647Z,1.80
2018-09-16T13:33:58.209Z,1.90
2018-09-16T13:36:26.478Z,1.70
2018-09-16T13:38:54.833Z,1.90
2018-09-16T13:41:23.106Z,1.90
2018-09-16T13:43:51.336Z,1.92
2018-09-16T13:46:19.616Z,1.90
2018-09-16T13:48:47.861Z,1.80
2018-09-16T13:51:16.138Z,2.15
2018-09-16T13:53:45.014Z,1.90
2018-09-16T13:56:13.236Z,1.60
2018-09-16T13:58:41.481Z,1.62
2018-09-16T14:01:09.736Z,1.92
2018-09-16T14:03:37.982Z,2.00
2018-09-16T14:06:06.254Z,1.67
2018-09-16T14:08:34.500Z,1.80
2018-09-16T14:11:02.728Z,1.90
2018-09-16T14:13:30.976Z,2.10
2018-09-16T14:15:59.203Z,1.93
2018-09-16T14:18:27.480Z,1.67
2018-09-16T14:20:55.836Z,1.67
2018-09-16T14:23:24.061Z,1.92
2018-09-16T14:25:52.589Z,1.80
2018-09-16T14:28:23.039Z,1.70
2018-09-16T14:30:51.249Z,1.80
2018-09-16T14:33:19.496Z,1.90
2018-09-16T14:35:47.724Z,2.00
2018-09-16T14:38:15.973Z,1.43
2018-09-16T14:40:44.257Z,1.62
2018-09-16T14:43:12.613Z,1.60
2018-09-16T14:45:40.830Z,2.00
2018-09-16T14:48:09.088Z,1.40
2018-09-16T14:50:37.353Z,1.60
2018-09-16T14:53:05.625Z,1.60
2018-09-16T14:55:33.878Z,1.90
2018-09-16T14:58:02.101Z,1.80
2018-09-16T15:00:30.390Z,2.00
2018-09-16T15:02:59.744Z,1.77
2018-09-16T15:05:27.992Z,1.60
2018-09-16T15:07:56.233Z,1.60
2018-09-16T15:10:24.484Z,1.60
2018-09-16T15:12:53.673Z,1.40
2018-09-16T15:15:21.968Z,1.77
2018-09-16T15:17:50.200Z,1.50
2018-09-16T15:20:18.448Z,1.60
2018-09-16T15:22:46.704Z,1.50
2018-09-16T15:25:14.957Z,1.98
2018-09-16T15:27:43.189Z,1.70
2018-09-16T15:30:11.472Z,1.40
2018-09-16T15:32:39.712Z,1.70
2018-09-16T15:35:08.010Z,1.65
2018-09-16T15:37:36.267Z,1.70
2018-09-16T15:40:04.540Z,1.72
2018-09-16T15:42:32.780Z,1.60
2018-09-16T15:45:01.062Z,1.60
2018-09-16T15:47:29.296Z,1.50
2018-09-16T15:49:57.558Z,1.73
2018-09-16T15:52:25.809Z,1.70
2018-09-16T15:54:54.117Z,1.80
2018-09-16T15:57:22.362Z,1.80
2018-09-16T15:59:50.665Z,1.70
2018-09-16T16:02:18.886Z,2.00
2018-09-16T16:04:47.165Z,1.63
2018-09-16T16:07:15.396Z,1.40
2018-09-16T16:09:44.000Z,1.80
2018-09-16T16:12:12.253Z,1.80
2018-09-16T16:14:40.493Z,1.90
2018-09-16T16:17:08.766Z,2.12
2018-09-16T16:19:37.009Z,1.93
2018-09-16T16:22:05.261Z,1.77
2018-09-16T16:24:33.617Z,1.90
2018-09-16T16:27:01.898Z,1.80
2018-09-16T16:29:30.130Z,2.10
2018-09-16T16:31:58.407Z,1.63
2018-09-16T16:34:26.724Z,2.00
2018-09-16T16:36:54.929Z,2.00
2018-09-16T16:39:23.158Z,1.80
2018-09-16T16:41:51.485Z,1.50
2018-09-16T16:44:19.704Z,1.90
2018-09-16T16:46:47.956Z,1.93
2018-09-16T16:49:16.221Z,1.40
2018-09-16T16:51:44.481Z,1.60
2018-09-16T16:54:13.886Z,1.60
2018-09-16T16:56:42.164Z,1.90
2018-09-16T16:59:10.412Z,1.77
2018-09-16T17:01:38.677Z,1.90
2018-09-16T17:04:06.913Z,1.70
2018-09-16T17:06:35.192Z,2.20
2018-09-16T17:09:03.620Z,1.80
2018-09-16T17:11:31.865Z,1.93
2018-09-16T17:14:00.117Z,1.98
2018-09-16T17:16:28.377Z,2.53
2018-09-16T17:18:56.673Z,2.20
2018-09-16T17:21:24.908Z,1.80
2018-09-16T17:23:53.277Z,1.70
2018-09-16T17:26:21.854Z,2.10
2018-09-16T17:28:50.213Z,1.80
2018-09-16T17:31:18.505Z,1.90
2018-09-16T17:33:46.760Z,1.95
2018-09-16T17:36:14.978Z,1.80
2018-09-16T17:38:43.361Z,1.70
2018-09-16T17:41:11.637Z,1.90
2018-09-16T17:43:40.033Z,2.12
2018-09-16T17:46:08.694Z,2.00
2018-09-16T17:48:37.028Z,1.87
2018-09-16T17:51:05.460Z,1.87
2018-09-16T17:53:33.773Z,2.10
2018-09-16T17:56:02.205Z,1.98
2018-09-16T17:58:30.469Z,2.20
2018-09-16T18:00:58.753Z,1.80
2018-09-16T18:03:27.047Z,2.07
2018-09-16T18:05:56.235Z,2.20
2018-09-16T18:08:30.037Z,2.10
2018-09-16T18:10:58.412Z,2.13
2018-09-16T18:13:26.783Z,2.23
2018-09-16T18:15:55.158Z,2.43
2018-09-16T18:18:23.465Z,2.30
2018-09-16T18:20:51.821Z,2.45
2018-09-16T18:23:20.163Z,2.55
2018-09-16T18:25:48.408Z,3.00
2018-09-16T18:28:16.720Z,2.80
2018-09-16T18:30:45.013Z,2.70
2018-09-16T18:33:13.265Z,3.12
2018-09-16T18:35:42.368Z,2.70
2018-09-16T18:38:10.674Z,2.93
2018-09-16T18:40:38.928Z,3.20
2018-09-16T18:43:07.270Z,3.10
2018-09-16T18:45:35.565Z,3.00
2018-09-16T18:48:03.845Z,2.50
2018-09-16T18:50:32.440Z,3.10
2018-09-16T18:53:00.676Z,3.37
2018-09-16T18:55:28.993Z,4.17
2018-09-16T18:57:57.289Z,4.50
2018-09-16T19:00:25.817Z,4.30
2018-09-16T19:02:54.240Z,3.60
2018-09-16T19:05:22.502Z,3.30
2018-09-16T19:07:51.205Z,3.00
2018-09-16T19:10:19.816Z,2.70
2018-09-16T19:12:48.108Z,3.20
2018-09-16T19:15:16.453Z,3.00
2018-09-16T19:17:44.748Z,2.87
2018-09-16T19:20:13.029Z,3.67
2018-09-16T19:22:41.312Z,4.27
2018-09-16T19:25:09.650Z,4.00
2018-09-16T19:27:38.633Z,3.50
2018-09-16T19:30:07.207Z,3.85
2018-09-16T19:32:35.506Z,3.67
2018-09-16T19:35:04.088Z,4.00
2018-09-16T19:37:32.339Z,4.08
2018-09-16T19:40:00.612Z,3.53
2018-09-16T19:42:28.889Z,3.40
2018-09-16T19:44:57.153Z,2.95
2018-09-16T19:47:26.399Z,2.80
2018-09-16T19:49:54.640Z,3.00
2018-09-16T19:52:22.995Z,3.40
2018-09-16T19:54:51.308Z,2.83
2018-09-16T19:57:19.537Z,3.00
2018-09-16T19:59:47.806Z,2.80
2018-09-16T20:02:16.066Z,2.70
2018-09-16T20:04:44.401Z,2.52
2018-09-16T20:07:13.057Z,3.30
2018-09-16T20:09:41.450Z,2.83
2018-09-16T20:12:09.857Z,2.37
2018-09-16T20:14:38.092Z,2.70
2018-09-16T20:17:06.313Z,2.47
2018-09-16T20:19:34.657Z,2.40
2018-09-16T20:22:02.878Z,2.52
2018-09-16T20:24:31.117Z,2.70
2018-09-16T20:26:59.355Z,2.80
2018-09-16T20:29:27.609Z,2.67
2018-09-16T20:31:55.919Z,2.90
2018-09-16T20:34:24.173Z,2.70
2018-09-16T20:36:52.441Z,2.70
2018-09-16T20:39:20.674Z,2.58
2018-09-16T20:41:49.011Z,2.87
2018-09-16T20:44:17.572Z,2.55
2018-09-16T20:46:45.852Z,2.40
2018-09-16T20:49:14.241Z,2.90
2018-09-16T20:51:42.468Z,2.77
2018-09-16T20:54:10.865Z,3.20
2018-09-16T20:56:39.363Z,2.70
2018-09-16T20:59:07.788Z,2.75
2018-09-16T21:01:36.125Z,2.90
2018-09-16T21:04:05.329Z,2.70
2018-09-16T21:06:33.544Z,3.05
2018-09-16T21:09:01.803Z,3.10
2018-09-16T21:11:30.037Z,2.95
2018-09-16T21:13:58.326Z,2.60
2018-09-16T21:16:26.557Z,2.90
2018-09-16T21:18:54.792Z,2.90
2018-09-16T21:21:23.902Z,2.60
2018-09-16T21:23:52.898Z,3.02
2018-09-16T21:26:21.330Z,2.80
2018-09-16T21:28:49.809Z,3.10
2018-09-16T21:31:18.040Z,3.13
2018-09-16T21:33:46.248Z,3.23
2018-09-16T21:36:14.486Z,3.03
2018-09-16T21:38:42.735Z,2.90
2018-09-16T21:41:10.974Z,2.97
2018-09-16T21:43:39.177Z,3.00
2018-09-16T21:46:07.426Z,3.27
2018-09-16T21:48:35.645Z,3.20
2018-09-16T21:51:03.887Z,3.00
2018-09-16T21:53:32.097Z,3.20
2018-09-16T21:56:00.332Z,2.90
2018-09-16T21:58:28.537Z,3.20
2018-09-16T22:00:56.804Z,3.27
2018-09-16T22:03:25.948Z,3.23
2018-09-16T22:05:54.865Z,3.10
2018-09-16T22:08:23.108Z,3.40
2018-09-16T22:10:51.349Z,3.30
2018-09-16T22:13:19.628Z,3.60
2018-09-16T22:15:47.992Z,3.60
2018-09-16T22:18:16.229Z,2.80
2018-09-16T22:20:44.485Z,3.30
2018-09-16T22:23:12.683Z,3.20
2018-09-16T22:25:40.921Z,3.45
2018-09-16T22:28:09.141Z,3.40
2018-09-16T22:30:37.404Z,3.00
2018-09-16T22:33:05.640Z,3.17
2018-09-16T22:35:33.906Z,3.35
2018-09-16T22:38:02.144Z,3.12
2018-09-16T22:40:30.348Z,3.40
2018-09-16T22:42:58.580Z,3.30
2018-09-16T22:45:26.800Z,3.20
2018-09-16T22:47:55.032Z,2.85
2018-09-16T22:50:23.237Z,3.10
2018-09-16T22:52:51.456Z,3.30
2018-09-16T22:55:19.657Z,3.10
2018-09-16T22:57:47.920Z,3.80
2018-09-16T23:00:17.726Z,3.30
2018-09-16T23:02:45.972Z,3.20
2018-09-16T23:05:14.208Z,3.58
2018-09-16T23:07:42.965Z,3.58
2018-09-16T23:10:11.173Z,3.70
2018-09-16T23:12:39.716Z,3.65
2018-09-16T23:15:07.947Z,3.33
2018-09-16T23:17:36.172Z,3.60
2018-09-16T23:20:04.424Z,3.72
2018-09-16T23:22:32.652Z,4.00
2018-09-16T23:25:00.869Z,3.17
2018-09-16T23:27:29.097Z,2.83
2018-09-16T23:29:57.325Z,3.20
2018-09-16T23:32:25.556Z,3.30
2018-09-16T23:34:53.796Z,3.37
2018-09-16T23:37:22.053Z,3.20
2018-09-16T23:39:50.284Z,2.83
2018-09-16T23:42:18.496Z,3.47
2018-09-16T23:44:46.729Z,3.35
2018-09-16T23:47:14.941Z,3.22
2018-09-16T23:49:43.179Z,3.40
2018-09-16T23:52:11.389Z,3.23
2018-09-16T23:54:39.640Z,3.20
2018-09-16T23:57:07.857Z,3.30
2018-09-16T23:59:36.108Z,3.35
